Lurin, Peru
Current Conditions -  °F | °C
As of 8:00 AM on Friday 24 Oct 2014 (Local Time) from SPIM Reporting Station
Overcast Overcast  
Wind Chill: 64°   Ceiling: 1800
Heat Index: 64°   Visibility: 6mi
Dew Point: 59°   Wind: 10mph
Humidity: 83%   Direction: 170°S
Pressure: 29.97"   Gusts: NA
Location:  12.32°S, 76.25°W
Report Text: SPIM 241300Z 17009KT 9999 SCT016 OVC018 18/15 Q1015 NOSIG RMK PP000
Loading
Personal Weather Stations






























Interactive Weather Map
Tropical Storm Tracking
New forecast layout! Learn more

10-Day Weather Forecast

Advertisements
Track Severe Weather on mobile